Time;durP1;ratioP1;P1;durP2;ratioP2;P2;SDS_P1;SDS_P2;PMS_P1;PMS_P2;Temp;Humidity;BMP_temperature;BMP_pressure;BME280_temperature;BME280_humidity;BME280_pressure;Samples;Min_cycle;Max_cycle;Signal;HPM_P1;HPM_P2
2022/03/01 00:00:06;;;;;;;;;;;;;;;5.84;39.89;101381.12;4427621;32;19992;-79
2022/03/01 00:02:37;;;;;;;;;;;;;;;5.80;39.89;101384.28;4431135;32;19981;-79
2022/03/01 00:05:05;;;;;;;;;;;;;;;5.71;40.30;101384.66;4436807;32;20030;-79
2022/03/01 00:07:31;;;;;;;;;;;;;;;5.82;39.86;101380.16;4427135;32;19974;-79
2022/03/01 00:09:58;;;;;;;;;;;;;;;5.59;40.27;101384.78;4420388;32;19990;-79
2022/03/01 00:12:25;;;;;;;;;;;;;;;5.29;40.79;101385.47;4427131;32;20042;-79
2022/03/01 00:14:52;;;;;;;;;;;;;;;5.40;40.72;101386.16;4431110;32;19969;-80
2022/03/01 00:17:19;;;;;;;;;;;;;;;5.52;40.51;101387.78;4426467;32;19974;-80
2022/03/01 00:19:46;;;;;;;;;;;;;;;5.75;39.88;101385.72;4418583;32;19986;-79
2022/03/01 00:22:13;;;;;;;;;;;;;;;5.81;39.58;101388.66;4416199;32;19990;-79
2022/03/01 00:24:39;;;;;;;;;;;;;;;5.71;40.05;101378.59;4425627;32;19989;-79
2022/03/01 00:27:06;;;;;;;;;;;;;;;5.76;39.89;101377.22;4421113;32;20432;-81
2022/03/01 00:29:34;;;;;;;;;;;;;;;5.67;39.82;101371.50;4427793;32;20035;-78
2022/03/01 00:32:01;;;;;;;;;;;;;;;5.41;40.34;101370.81;4423977;32;20035;-78
2022/03/01 00:34:28;;;;;;;;;;;;;;;5.41;40.39;101378.53;4416516;32;20035;-78
2022/03/01 00:36:55;;;;;;;;;;;;;;;5.38;40.27;101383.47;4422005;32;19982;-77
2022/03/01 00:39:21;;;;;;;;;;;;;;;5.58;40.13;101377.88;4427291;32;19966;-77
2022/03/01 00:41:48;;;;;;;;;;;;;;;5.46;40.34;101377.13;4425799;32;19978;-78
2022/03/01 00:44:15;;;;;;;;;;;;;;;5.56;40.42;101379.47;4422342;32;20327;-78
2022/03/01 00:46:43;;;;;;;;;;;;;;;5.39;40.24;101374.97;4442716;32;20016;-79
2022/03/01 00:49:10;;;;;;;;;;;;;;;5.65;40.00;101378.22;4426776;32;20025;-78
2022/03/01 00:51:37;;;;;;;;;;;;;;;5.84;39.40;101376.00;4421226;32;20310;-79
2022/03/01 00:54:04;;;;;;;;;;;;;;;5.91;39.05;101373.00;4434047;32;19970;-79
2022/03/01 00:56:31;;;;;;;;;;;;;;;5.87;39.12;101371.03;4425944;32;19989;-78
2022/03/01 00:58:58;;;;;;;;;;;;;;;5.94;38.93;101373.22;4417011;32;20299;-78
2022/03/01 01:01:25;;;;;;;;;;;;;;;5.73;39.63;101377.03;4419914;32;19981;-78
2022/03/01 01:03:52;;;;;;;;;;;;;;;5.49;39.96;101368.75;4419689;32;19978;-78
2022/03/01 01:06:19;;;;;;;;;;;;;;;5.65;39.78;101367.94;4415846;32;19962;-78
2022/03/01 01:08:46;;;;;;;;;;;;;;;5.95;39.35;101362.13;4415941;32;20004;-78
2022/03/01 01:11:13;;;;;;;;;;;;;;;6.12;39.00;101359.66;4421435;32;22255;-79
2022/03/01 01:13:40;;;;;;;;;;;;;;;5.90;39.04;101366.06;4427563;32;19996;-78
2022/03/01 01:16:07;;;;;;;;;;;;;;;6.07;38.84;101366.22;4431748;32;19974;-78
2022/03/01 01:18:36;;;;;;;;;;;;;;;5.91;38.88;101357.56;4442393;32;20038;-78
2022/03/01 01:21:03;;;;;;;;;;;;;;;5.96;38.79;101358.75;4433619;32;20023;-78
2022/03/01 01:23:29;;;;;;;;;;;;;;;6.12;38.46;101362.22;4432706;32;19992;-79
2022/03/01 01:25:57;;;;;;;;;;;;;;;5.94;38.66;101362.94;4430099;32;20435;-79
2022/03/01 01:28:23;;;;;;;;;;;;;;;6.07;38.38;101368.78;4425119;32;20116;-78
2022/03/01 01:30:50;;;;;;;;;;;;;;;5.74;39.17;101363.38;4422685;32;20023;-79
2022/03/01 01:33:17;;;;;;;;;;;;;;;5.63;39.23;101360.16;4416057;32;20534;-79
2022/03/01 01:35:44;;;;;;;;;;;;;;;5.77;39.19;101363.56;4420241;32;19978;-78
2022/03/01 01:38:10;;;;;;;;;;;;;;;6.05;38.50;101363.56;4417723;32;20016;-78
2022/03/01 01:40:37;;;;;;;;;;;;;;;6.04;38.60;101372.94;4422204;32;20000;-79
2022/03/01 01:43:04;;;;;;;;;;;;;;;5.91;38.53;101366.97;4423927;32;20028;-79
2022/03/01 01:45:31;;;;;;;;;;;;;;;5.57;39.39;101368.38;4417505;32;19993;-79
2022/03/01 01:47:59;;;;;;;;;;;;;;;5.91;38.94;101362.72;4433815;32;20377;-79
2022/03/01 01:50:27;;;;;;;;;;;;;;;6.05;38.66;101367.00;4427312;32;20035;-79
2022/03/01 01:52:54;;;;;;;;;;;;;;;5.98;38.36;101367.44;4417181;32;19984;-79
2022/03/01 01:55:22;;;;;;;;;;;;;;;5.87;38.48;101371.03;4430923;32;19981;-79
2022/03/01 01:57:56;;;;;;;;;;;;;;;5.89;38.63;101359.16;4428962;32;19986;-79
2022/03/01 02:00:23;;;;;;;;;;;;;;;5.97;38.58;101364.81;4418630;32;20000;-78
2022/03/01 02:02:50;;;;;;;;;;;;;;;6.16;38.06;101351.31;4415005;32;19978;-79
2022/03/01 02:05:17;;;;;;;;;;;;;;;5.93;38.25;101356.00;4413686;32;20001;-79
2022/03/01 02:07:45;;;;;;;;;;;;;;;5.80;38.53;101353.47;4412826;32;19989;-79
2022/03/01 02:10:12;;;;;;;;;;;;;;;5.69;38.61;101350.28;4406712;32;19994;-79
2022/03/01 02:12:39;;;;;;;;;;;;;;;5.73;38.72;101346.19;4400657;32;20345;-79
2022/03/01 02:15:06;;;;;;;;;;;;;;;5.50;39.08;101355.09;4400293;32;20058;-79
2022/03/01 02:17:33;;;;;;;;;;;;;;;5.59;38.71;101348.84;4400495;32;19986;-80
2022/03/01 02:20:00;;;;;;;;;;;;;;;5.41;39.26;101346.81;4398509;32;19978;-79
2022/03/01 02:22:32;;;;;;;;;;;;;;;5.86;38.26;101343.56;4400436;32;19986;-79
2022/03/01 02:25:00;;;;;;;;;;;;;;;5.77;38.16;101345.56;4405419;32;20057;-80
2022/03/01 02:27:29;;;;;;;;;;;;;;;5.74;38.56;101342.81;4400360;32;19977;-79
2022/03/01 02:29:56;;;;;;;;;;;;;;;5.87;38.12;101344.44;4402025;32;19982;-79
2022/03/01 02:32:23;;;;;;;;;;;;;;;5.76;38.12;101346.38;4411856;32;19966;-80
2022/03/01 02:34:50;;;;;;;;;;;;;;;5.88;38.23;101341.97;4398444;32;20008;-80
2022/03/01 02:37:17;;;;;;;;;;;;;;;5.72;38.20;101344.44;4399843;32;20057;-80
2022/03/01 02:39:44;;;;;;;;;;;;;;;5.81;38.05;101350.12;4400188;32;20035;-79
2022/03/01 02:42:10;;;;;;;;;;;;;;;5.47;38.50;101340.38;4401649;32;19986;-79
2022/03/01 02:44:37;;;;;;;;;;;;;;;5.66;38.05;101338.94;4408553;32;19988;-79
2022/03/01 02:47:04;;;;;;;;;;;;;;;5.47;38.51;101337.81;4399760;32;20046;-79
2022/03/01 02:49:31;;;;;;;;;;;;;;;5.51;38.21;101344.00;4400018;32;19982;-80
2022/03/01 02:51:58;;;;;;;;;;;;;;;5.70;38.21;101340.88;4398655;32;20058;-79
2022/03/01 02:54:25;;;;;;;;;;;;;;;5.66;38.36;101333.78;4410759;32;19977;-79
2022/03/01 02:56:52;;;;;;;;;;;;;;;5.70;38.01;101335.72;4413369;32;20075;-80
2022/03/01 02:59:19;;;;;;;;;;;;;;;5.94;37.30;101332.09;4406184;32;20339;-79
2022/03/01 03:01:46;;;;;;;;;;;;;;;5.75;38.02;101334.34;4399874;32;19978;-80
2022/03/01 03:04:13;;;;;;;;;;;;;;;5.79;37.67;101336.28;4399868;32;19974;-79
2022/03/01 03:06:42;;;;;;;;;;;;;;;5.85;37.71;101328.94;4399198;32;19982;-78
2022/03/01 03:09:09;;;;;;;;;;;;;;;5.94;37.47;101336.34;4407720;32;20469;-78
2022/03/01 03:11:36;;;;;;;;;;;;;;;5.84;37.82;101337.47;4410832;32;19996;-79
2022/03/01 03:14:03;;;;;;;;;;;;;;;5.69;38.34;101339.13;4399566;32;20034;-79
2022/03/01 03:16:30;;;;;;;;;;;;;;;5.95;37.06;101333.84;4399159;32;19991;-79
2022/03/01 03:18:58;;;;;;;;;;;;;;;5.92;37.33;101336.22;4399607;32;19982;-79
2022/03/01 03:21:24;;;;;;;;;;;;;;;5.91;37.28;101337.00;4400491;32;20050;-79
2022/03/01 03:23:52;;;;;;;;;;;;;;;5.71;38.21;101337.50;4414281;32;19998;-79
2022/03/01 03:26:18;;;;;;;;;;;;;;;5.82;37.66;101339.03;4417217;32;19977;-79
2022/03/01 03:28:46;;;;;;;;;;;;;;;6.07;37.24;101337.94;4410930;32;19985;-76
2022/03/01 03:31:13;;;;;;;;;;;;;;;5.72;37.73;101334.16;4403378;32;20316;-78
2022/03/01 03:33:40;;;;;;;;;;;;;;;5.65;37.56;101343.19;4408227;32;19996;-79
2022/03/01 03:36:07;;;;;;;;;;;;;;;5.90;37.62;101340.34;4403529;32;20038;-78
2022/03/01 03:38:34;;;;;;;;;;;;;;;5.82;37.84;101341.59;4408543;32;20060;-77
2022/03/01 03:41:01;;;;;;;;;;;;;;;5.95;37.35;101341.56;4412464;32;20024;-79
2022/03/01 03:43:28;;;;;;;;;;;;;;;5.92;37.45;101349.06;4412088;32;19985;-79
2022/03/01 03:45:55;;;;;;;;;;;;;;;5.72;37.60;101349.56;4401914;32;19990;-78
2022/03/01 03:48:22;;;;;;;;;;;;;;;5.59;37.98;101346.25;4401623;32;20047;-79
2022/03/01 03:50:48;;;;;;;;;;;;;;;5.93;38.00;101345.72;4401471;32;20116;-78
2022/03/01 03:53:15;;;;;;;;;;;;;;;6.11;37.75;101345.03;4409227;32;19993;-78
2022/03/01 03:55:42;;;;;;;;;;;;;;;6.18;37.30;101342.91;4414818;32;20002;-79
2022/03/01 03:58:09;;;;;;;;;;;;;;;6.01;37.23;101347.06;4410977;32;19986;-79
2022/03/01 04:00:36;;;;;;;;;;;;;;;6.01;37.24;101344.50;4417586;32;20010;-79
2022/03/01 04:03:03;;;;;;;;;;;;;;;5.96;37.25;101337.31;4401482;32;19982;-78
2022/03/01 04:05:30;;;;;;;;;;;;;;;6.22;37.31;101349.09;4401854;32;19978;-79
2022/03/01 04:07:57;;;;;;;;;;;;;;;6.25;37.72;101345.03;4401170;32;19992;-79
2022/03/01 04:10:25;;;;;;;;;;;;;;;6.14;37.70;101350.34;4401194;32;19970;-79
2022/03/01 04:12:51;;;;;;;;;;;;;;;5.97;37.30;101347.69;4405760;32;19986;-79
2022/03/01 04:15:18;;;;;;;;;;;;;;;6.14;36.75;101352.94;4395500;32;19990;-79
2022/03/01 04:17:45;;;;;;;;;;;;;;;6.22;37.03;101349.09;4396944;32;20043;-78
2022/03/01 04:20:12;;;;;;;;;;;;;;;6.16;37.65;101348.75;4088565;32;10000410;-79
2022/03/01 04:22:40;;;;;;;;;;;;;;;5.99;37.03;101340.94;4395576;32;20017;-79
2022/03/01 04:25:08;;;;;;;;;;;;;;;5.99;37.11;101340.94;4411162;32;20354;-77
2022/03/01 04:27:35;;;;;;;;;;;;;;;6.10;37.91;101344.16;4401170;32;19998;-77
2022/03/01 04:30:04;;;;;;;;;;;;;;;5.82;37.16;101346.75;4399621;32;19978;-78
2022/03/01 04:32:31;;;;;;;;;;;;;;;6.17;37.04;101347.97;4400144;32;19990;-77
2022/03/01 04:34:58;;;;;;;;;;;;;;;6.01;37.22;101349.63;4401148;32;20272;-78
2022/03/01 04:37:25;;;;;;;;;;;;;;;6.00;37.18;101347.88;4404079;32;20000;-76
2022/03/01 04:39:53;;;;;;;;;;;;;;;6.09;37.67;101354.34;4410130;32;20414;-77
2022/03/01 04:42:20;;;;;;;;;;;;;;;6.07;37.63;101353.38;4404966;32;19984;-77
2022/03/01 04:44:47;;;;;;;;;;;;;;;6.09;37.39;101352.63;4408110;32;20006;-77
2022/03/01 04:47:15;;;;;;;;;;;;;;;6.13;37.74;101348.59;4400176;32;20686;-77
2022/03/01 04:49:41;;;;;;;;;;;;;;;6.11;37.56;101352.75;4401126;32;20019;-77
2022/03/01 04:52:10;;;;;;;;;;;;;;;6.22;37.46;101349.09;4401415;32;20375;-77
2022/03/01 04:54:38;;;;;;;;;;;;;;;6.20;37.68;101348.16;4420212;32;19982;-76
2022/03/01 04:57:05;;;;;;;;;;;;;;;6.17;37.65;101345.41;4416686;32;19986;-76
2022/03/01 04:59:31;;;;;;;;;;;;;;;6.14;37.55;101348.66;4416455;32;20925;-77
2022/03/01 05:01:58;;;;;;;;;;;;;;;6.00;37.88;101350.44;4416419;32;20316;-77
2022/03/01 05:04:25;;;;;;;;;;;;;;;5.77;38.50;101348.16;4419024;32;19978;-77
2022/03/01 05:06:53;;;;;;;;;;;;;;;6.02;37.96;101346.25;4408725;32;20010;-76
2022/03/01 05:09:24;;;;;;;;;;;;;;;5.90;38.30;101337.78;4416016;32;19978;-77
2022/03/01 05:11:51;;;;;;;;;;;;;;;5.71;38.37;101337.50;4409701;32;19962;-77
2022/03/01 05:14:18;;;;;;;;;;;;;;;5.88;38.29;101336.84;4404819;32;20342;-77
2022/03/01 05:16:46;;;;;;;;;;;;;;;5.70;39.55;101338.31;4400958;32;20346;-75
2022/03/01 05:19:13;;;;;;;;;;;;;;;5.78;38.82;101335.41;4420569;32;19996;-76
2022/03/01 05:21:40;;;;;;;;;;;;;;;5.62;39.38;101347.25;4402676;32;20001;-76
2022/03/01 05:24:07;;;;;;;;;;;;;;;5.44;39.76;101336.75;4408986;32;20308;-75
2022/03/01 05:26:36;;;;;;;;;;;;;;;5.68;40.15;101342.44;4413638;32;19978;-76
2022/03/01 05:29:03;;;;;;;;;;;;;;;5.70;39.55;101340.88;4410994;32;19990;-77
2022/03/01 05:31:30;;;;;;;;;;;;;;;5.51;40.15;101344.91;4402867;32;20312;-76
2022/03/01 05:33:57;;;;;;;;;;;;;;;5.58;39.20;101334.22;4399294;32;20276;-76
2022/03/01 05:36:24;;;;;;;;;;;;;;;5.18;40.54;101343.75;4403736;32;19974;-76
2022/03/01 05:38:51;;;;;;;;;;;;;;;5.33;40.66;101351.50;4406426;32;20339;-77
2022/03/01 05:41:18;;;;;;;;;;;;;;;5.28;40.55;101340.06;4389041;32;20034;-76
2022/03/01 05:43:45;;;;;;;;;;;;;;;5.28;40.63;101343.50;4378944;32;20024;-78
2022/03/01 05:46:12;;;;;;;;;;;;;;;5.31;40.63;101345.37;4373143;32;20401;-77
2022/03/01 05:48:41;;;;;;;;;;;;;;;5.56;39.22;101342.63;4371658;32;20052;-78
2022/03/01 05:51:08;;;;;;;;;;;;;;;5.64;39.23;101343.06;4392686;32;20394;-77
2022/03/01 05:53:35;;;;;;;;;;;;;;;5.90;39.57;101350.62;4428888;32;19985;-78
2022/03/01 05:56:02;;;;;;;;;;;;;;;5.94;38.81;101342.37;4424953;32;20769;-78
2022/03/01 05:58:29;;;;;;;;;;;;;;;5.59;39.63;101348.84;4421128;32;20031;-78
2022/03/01 06:00:56;;;;;;;;;;;;;;;6.09;38.96;101346.63;4426030;32;20229;-79
2022/03/01 06:03:23;;;;;;;;;;;;;;;6.12;39.01;101357.09;4423996;32;19985;-78
2022/03/01 06:05:50;;;;;;;;;;;;;;;6.01;38.53;101352.22;4424125;32;20057;-77
2022/03/01 06:08:17;;;;;;;;;;;;;;;6.33;37.92;101357.44;4425441;32;20440;-78
2022/03/01 06:10:44;;;;;;;;;;;;;;;6.27;37.54;101353.72;4424570;32;20331;-78
2022/03/01 06:13:10;;;;;;;;;;;;;;;6.34;37.69;101359.22;4428487;32;19978;-76
2022/03/01 06:15:37;;;;;;;;;;;;;;;5.60;38.35;101360.00;4441594;32;20001;-77
2022/03/01 06:18:04;;;;;;;;;;;;;;;6.24;38.05;101357.81;4430378;32;20000;-78
2022/03/01 06:20:34;;;;;;;;;;;;;;;6.26;37.98;101361.34;4422146;32;19989;-77
2022/03/01 06:23:02;;;;;;;;;;;;;;;6.44;37.36;101356.34;4402678;32;19997;-79
2022/03/01 06:25:29;;;;;;;;;;;;;;;6.70;36.56;101355.25;4433330;32;19999;-76
2022/03/01 06:27:56;;;;;;;;;;;;;;;6.72;36.86;101358.81;4420618;32;20014;-75
2022/03/01 06:30:24;;;;;;;;;;;;;;;6.44;37.21;101353.78;4423556;32;20046;-76
2022/03/01 06:32:54;;;;;;;;;;;;;;;6.77;36.94;101352.25;4407594;32;20012;-76
2022/03/01 06:35:21;;;;;;;;;;;;;;;6.89;36.22;101349.44;4422461;32;20000;-80
2022/03/01 06:38:16;;;;;;;;;;;;;;;7.08;36.12;101348.75;4424238;32;20022;-87
2022/03/01 06:40:45;;;;;;;;;;;;;;;7.28;35.24;101353.31;4424072;32;20072;-88
2022/03/01 06:43:19;;;;;;;;;;;;;;;7.38;34.88;101355.56;4416235;32;19986;-90
2022/03/01 06:45:59;;;;;;;;;;;;;;;7.32;34.32;101352.66;4433741;32;20005;-86
2022/03/01 06:48:33;;;;;;;;;;;;;;;6.98;36.00;101353.41;4437082;32;20391;-86
2022/03/01 06:51:02;;;;;;;;;;;;;;;7.32;35.15;101362.97;4423233;32;19970;-83
2022/03/01 06:53:36;;;;;;;;;;;;;;;7.57;34.49;101352.28;4433079;32;19973;-86
2022/03/01 06:56:07;;;;;;;;;;;;;;;7.90;34.00;101350.56;4425662;32;19993;-85
2022/03/01 06:58:45;;;;;;;;;;;;;;;8.04;33.22;101353.84;4414699;32;20061;-84
2022/03/01 07:01:28;;;;;;;;;;;;;;;8.06;33.45;101353.91;4361476;32;19997;-85
2022/03/01 07:04:06;;;;;;;;;;;;;;;8.22;33.00;101338.37;4231613;32;3813619;-85
2022/03/01 07:06:36;;;;;;;;;;;;;;;8.57;32.63;101344.44;4415563;32;20051;-85
2022/03/01 07:09:04;;;;;;;;;;;;;;;8.90;32.68;101344.25;4435627;32;20012;-83
2022/03/01 07:11:31;;;;;;;;;;;;;;;9.18;31.89;101331.81;4434195;32;19982;-84
2022/03/01 07:13:58;;;;;;;;;;;;;;;9.28;31.48;101334.00;4427621;32;20029;-82
2022/03/01 07:16:24;;;;;;;;;;;;;;;9.80;30.76;101331.97;4420079;32;20051;-82
2022/03/01 07:18:54;;;;;;;;;;;;;;;10.36;29.24;101323.12;4422952;32;20000;-81
2022/03/01 07:21:21;;;;;;;;;;;;;;;10.48;28.82;101318.44;4426541;32;19997;-81
2022/03/01 07:23:48;;;;;;;;;;;;;;;10.35;28.61;101321.37;4088344;32;10008472;-82
2022/03/01 07:26:15;;;;;;;;;;;;;;;10.34;28.87;101324.75;4421425;32;19982;-82
2022/03/01 07:28:41;;;;;;;;;;;;;;;10.76;28.54;101319.56;4423430;32;20036;-75
2022/03/01 07:31:08;;;;;;;;;;;;;;;10.91;27.53;101309.75;4423987;32;19989;-75
2022/03/01 07:33:38;;;;;;;;;;;;;;;11.10;27.15;101306.16;4425717;32;19994;-74
2022/03/01 07:36:05;;;;;;;;;;;;;;;11.49;26.97;101300.69;4427743;32;19999;-78
2022/03/01 07:38:31;;;;;;;;;;;;;;;11.55;27.24;101304.37;4427201;32;19977;-78
2022/03/01 07:41:00;;;;;;;;;;;;;;;11.88;26.35;101301.22;4431723;32;20335;-78
2022/03/01 07:43:26;;;;;;;;;;;;;;;11.98;25.65;101305.88;4422397;32;20331;-76
2022/03/01 07:45:53;;;;;;;;;;;;;;;12.15;26.04;101305.56;4427414;32;20028;-76
2022/03/01 07:48:20;;;;;;;;;;;;;;;12.27;25.58;101305.97;4427434;32;20775;-75
2022/03/01 07:50:48;;;;;;;;;;;;;;;12.28;24.94;101307.72;4426770;32;20057;-78
2022/03/01 07:53:17;;;;;;;;;;;;;;;12.22;25.33;101302.34;4427429;32;20039;-79
2022/03/01 07:55:45;;;;;;;;;;;;;;;12.45;24.79;101300.50;4427955;32;20045;-75
2022/03/01 07:58:11;;;;;;;;;;;;;;;12.53;24.35;101307.69;4426917;32;20124;-74
2022/03/01 08:00:38;;;;;;;;;;;;;;;12.41;24.69;101304.72;4427849;32;20098;-80
2022/03/01 08:03:06;;;;;;;;;;;;;;;12.53;25.36;101305.09;4440473;32;20008;-76
2022/03/01 08:05:34;;;;;;;;;;;;;;;12.74;23.59;101309.22;4423569;32;20340;-76
2022/03/01 08:08:01;;;;;;;;;;;;;;;12.37;24.39;101307.16;4423496;32;20548;-77
2022/03/01 08:10:29;;;;;;;;;;;;;;;12.52;24.41;101303.34;4433978;32;20004;-76
2022/03/01 08:12:56;;;;;;;;;;;;;;;12.18;24.15;101296.16;4428638;32;20427;-76
2022/03/01 08:15:26;;;;;;;;;;;;;;;12.26;23.94;101306.81;4425217;32;20028;-77
2022/03/01 08:17:54;;;;;;;;;;;;;;;12.42;24.04;101301.28;4426373;32;20741;-77
2022/03/01 08:20:21;;;;;;;;;;;;;;;12.37;23.93;101302.84;4430759;32;20206;-77
2022/03/01 08:22:48;;;;;;;;;;;;;;;12.09;23.92;101307.16;4430654;32;19978;-78
2022/03/01 08:25:16;;;;;;;;;;;;;;;11.69;25.03;101316.94;4428227;32;20040;-77
2022/03/01 08:27:42;;;;;;;;;;;;;;;12.13;24.43;101310.72;4425994;32;20382;-75
2022/03/01 08:30:09;;;;;;;;;;;;;;;12.26;24.51;101304.22;4430582;32;19986;-76
2022/03/01 08:32:37;;;;;;;;;;;;;;;12.46;24.04;101305.72;4421266;32;20334;-77
2022/03/01 08:35:03;;;;;;;;;;;;;;;12.27;23.78;101300.78;4415234;32;20027;-76
2022/03/01 08:37:30;;;;;;;;;;;;;;;12.73;24.27;101310.03;4419388;32;19985;-78
2022/03/01 08:39:59;;;;;;;;;;;;;;;12.71;24.49;101314.31;4415294;32;20669;-78
2022/03/01 08:42:26;;;;;;;;;;;;;;;13.04;23.61;101307.53;4430064;32;19977;-77
2022/03/01 08:44:52;;;;;;;;;;;;;;;13.36;22.07;101302.41;4423922;32;20027;-76
2022/03/01 08:47:19;;;;;;;;;;;;;;;13.20;22.48;101300.16;4421833;32;20561;-78
2022/03/01 08:49:46;;;;;;;;;;;;;;;12.36;22.48;101290.69;4415694;32;19986;-77
2022/03/01 08:52:14;;;;;;;;;;;;;;;12.65;22.44;101294.22;4428143;32;19982;-75
2022/03/01 08:54:41;;;;;;;;;;;;;;;12.83;22.24;101283.50;4422032;32;20333;-77
2022/03/01 08:57:09;;;;;;;;;;;;;;;12.81;22.59;101290.38;4419033;32;20377;-76
2022/03/01 08:59:36;;;;;;;;;;;;;;;12.84;22.37;101285.25;4430177;32;20031;-77
2022/03/01 09:02:03;;;;;;;;;;;;;;;12.91;21.93;101289.81;4421738;32;19978;-75
2022/03/01 09:04:30;;;;;;;;;;;;;;;13.15;21.60;101280.97;4415944;32;20873;-76
2022/03/01 09:06:57;;;;;;;;;;;;;;;13.16;21.34;101283.59;4423304;32;20516;-76
2022/03/01 09:09:25;;;;;;;;;;;;;;;13.15;21.48;101288.78;4421116;32;20026;-77
2022/03/01 09:11:52;;;;;;;;;;;;;;;13.08;22.56;101276.41;4417695;32;19973;-77
2022/03/01 09:14:19;;;;;;;;;;;;;;;12.94;23.29;101274.28;4417074;32;19981;-76
2022/03/01 09:16:46;;;;;;;;;;;;;;;13.30;22.04;101276.22;4422612;32;19989;-76
2022/03/01 09:19:14;;;;;;;;;;;;;;;12.89;22.51;101273.31;4415714;32;19977;-80
2022/03/01 09:21:41;;;;;;;;;;;;;;;12.85;22.34;101276.63;4414256;32;19973;-82
2022/03/01 09:24:08;;;;;;;;;;;;;;;12.91;22.32;101266.41;4426870;32;20041;-76
2022/03/01 09:26:35;;;;;;;;;;;;;;;12.94;22.15;101266.50;4432973;32;20035;-77
2022/03/01 09:29:02;;;;;;;;;;;;;;;12.48;21.71;101266.84;4429513;32;19986;-76
2022/03/01 09:31:30;;;;;;;;;;;;;;;12.69;21.98;101266.59;4428693;32;20015;-75
2022/03/01 09:33:57;;;;;;;;;;;;;;;12.65;22.06;101263.03;4422530;32;20024;-77
2022/03/01 09:36:24;;;;;;;;;;;;;;;12.68;21.57;101255.34;4417795;32;20033;-78
2022/03/01 09:38:51;;;;;;;;;;;;;;;13.04;21.50;101252.94;4429484;32;20061;-77
2022/03/01 09:41:18;;;;;;;;;;;;;;;12.60;24.01;101245.53;4428542;32;20400;-77
2022/03/01 09:43:45;;;;;;;;;;;;;;;13.26;21.15;101243.19;4422492;32;20026;-77
2022/03/01 09:46:15;;;;;;;;;;;;;;;13.31;21.00;101243.31;4431099;32;19981;-78
2022/03/01 09:48:42;;;;;;;;;;;;;;;13.49;20.89;101236.00;4442386;32;19985;-77
2022/03/01 09:51:09;;;;;;;;;;;;;;;13.25;22.19;101231.03;4431307;32;20049;-77
2022/03/01 09:53:39;;;;;;;;;;;;;;;13.32;21.83;101232.94;4437281;32;20050;-77
2022/03/01 09:56:07;;;;;;;;;;;;;;;13.66;21.70;101218.25;4427775;32;20023;-76
2022/03/01 09:58:36;;;;;;;;;;;;;;;13.37;22.37;101226.16;4426333;32;20951;-78
2022/03/01 10:01:03;;;;;;;;;;;;;;;12.98;23.53;101211.16;4432325;32;19990;-78
2022/03/01 10:03:35;;;;;;;;;;;;;;;13.32;22.36;101222.53;4428984;32;19981;-77
2022/03/01 10:06:06;;;;;;;;;;;;;;;13.29;21.83;101204.25;4442529;32;19989;-76
2022/03/01 10:08:33;;;;;;;;;;;;;;;13.35;20.86;101207.03;4431176;32;19995;-77
2022/03/01 10:11:00;;;;;;;;;;;;;;;13.54;21.77;101207.50;4430772;32;20019;-77
2022/03/01 10:13:29;;;;;;;;;;;;;;;13.59;21.16;101206.78;4430470;32;19982;-81
2022/03/01 10:16:03;;;;;;;;;;;;;;;13.69;20.19;101198.38;4428058;32;19978;-77
2022/03/01 10:18:33;;;;;;;;;;;;;;;13.94;20.00;101199.87;4423129;32;19981;-78
2022/03/01 10:21:02;;;;;;;;;;;;;;;13.74;19.90;101195.87;4425936;32;19973;-79
2022/03/01 10:23:28;;;;;;;;;;;;;;;13.73;19.89;101189.78;4427780;32;20079;-78
2022/03/01 10:25:56;;;;;;;;;;;;;;;13.33;20.29;101187.88;4428113;32;20514;-77
2022/03/01 10:28:33;;;;;;;;;;;;;;;13.63;19.95;101186.94;4424150;32;19982;-76
2022/03/01 10:31:08;;;;;;;;;;;;;;;13.28;20.30;101175.63;4426873;32;19985;-77
2022/03/01 10:33:35;;;;;;;;;;;;;;;13.36;20.59;101172.34;4429364;32;20040;-76
2022/03/01 10:36:02;;;;;;;;;;;;;;;13.43;21.34;101174.31;4429769;32;20041;-76
2022/03/01 10:38:29;;;;;;;;;;;;;;;13.63;20.92;101171.31;4416840;32;19978;-76
2022/03/01 10:40:57;;;;;;;;;;;;;;;13.64;19.53;101167.88;4417088;32;19978;-77
2022/03/01 10:43:27;;;;;;;;;;;;;;;13.59;19.69;101166.88;4422523;32;20048;-78
2022/03/01 10:45:54;;;;;;;;;;;;;;;13.67;19.80;101158.41;4424541;32;19986;-77
2022/03/01 10:48:28;;;;;;;;;;;;;;;13.62;19.40;101161.75;4422487;32;20021;-78
2022/03/01 10:50:58;;;;;;;;;;;;;;;13.48;19.18;101154.47;4416999;32;19978;-77
2022/03/01 10:53:31;;;;;;;;;;;;;;;13.38;19.64;101149.88;4418644;32;20398;-75
2022/03/01 10:56:02;;;;;;;;;;;;;;;13.42;19.16;101135.22;4423940;32;19986;-77
2022/03/01 10:58:29;;;;;;;;;;;;;;;13.25;19.50;101134.81;4435791;32;20005;-74
2022/03/01 11:00:56;;;;;;;;;;;;;;;13.40;19.00;101130.00;4432485;32;20645;-76
2022/03/01 11:03:24;;;;;;;;;;;;;;;13.26;18.97;101126.16;4426742;32;19993;-75
2022/03/01 11:05:54;;;;;;;;;;;;;;;13.57;18.87;101120.00;4430195;32;19981;-76
2022/03/01 11:08:40;;;;;;;;;;;;;;;13.44;19.30;101129.25;4420599;32;19997;-80
2022/03/01 11:11:08;;;;;;;;;;;;;;;13.25;21.45;101114.00;4435762;32;19992;-87
2022/03/01 11:13:35;;;;;;;;;;;;;;;13.49;20.59;101105.91;4434459;32;20019;-75
2022/03/01 11:16:05;;;;;;;;;;;;;;;13.68;19.11;101109.84;4428839;32;20266;-76
2022/03/01 11:18:36;;;;;;;;;;;;;;;13.60;19.74;101108.81;4423575;32;20002;-75
2022/03/01 11:21:03;;;;;;;;;;;;;;;13.33;19.20;101102.06;4416792;32;20307;-78
2022/03/01 11:23:30;;;;;;;;;;;;;;;12.79;21.93;101099.75;4427836;32;19978;-76
2022/03/01 11:26:06;;;;;;;;;;;;;;;13.45;19.55;101094.56;4430001;32;20652;-75
2022/03/01 11:28:40;;;;;;;;;;;;;;;13.32;18.49;101087.31;4430737;32;20401;-77
2022/03/01 11:31:17;;;;;;;;;;;;;;;13.65;19.80;101075.94;4429862;32;19969;-76
2022/03/01 11:33:52;;;;;;;;;;;;;;;13.76;18.54;101066.69;4416961;32;20024;-75
2022/03/01 11:36:20;;;;;;;;;;;;;;;13.77;17.59;101065.84;4424495;32;20274;-79
2022/03/01 11:38:46;;;;;;;;;;;;;;;13.64;17.11;101063.78;4417031;32;19973;-77
2022/03/01 11:41:18;;;;;;;;;;;;;;;13.72;16.97;101059.66;4418351;32;19974;-83
2022/03/01 11:44:12;;;;;;;;;;;;;;;13.55;16.94;101053.16;4436053;32;20316;-77
2022/03/01 11:46:40;;;;;;;;;;;;;;;13.63;17.68;101046.44;4415934;32;20008;-78
2022/03/01 11:49:08;;;;;;;;;;;;;;;13.71;17.13;101040.53;4427471;32;20041;-75
2022/03/01 11:51:41;;;;;;;;;;;;;;;13.76;17.93;101038.06;4428103;32;19990;-76
2022/03/01 11:54:12;;;;;;;;;;;;;;;13.76;17.06;101032.84;4416539;32;19997;-78
2022/03/01 11:56:40;;;;;;;;;;;;;;;13.81;17.31;101033.81;4419207;32;20003;-86
2022/03/01 11:59:08;;;;;;;;;;;;;;;13.95;18.50;101029.81;4423587;32;20033;-83
2022/03/01 12:01:35;;;;;;;;;;;;;;;14.29;18.09;101027.88;4430753;32;19992;-76
2022/03/01 12:04:03;;;;;;;;;;;;;;;14.25;18.29;101023.47;4431729;32;20057;-74
2022/03/01 12:06:31;;;;;;;;;;;;;;;14.32;18.56;101014.03;4430573;32;19989;-76
2022/03/01 12:08:58;;;;;;;;;;;;;;;14.42;17.42;101006.47;4431679;32;19992;-75
2022/03/01 12:11:39;;;;;;;;;;;;;;;14.33;17.26;101014.09;4430586;32;20031;-77
2022/03/01 12:14:11;;;;;;;;;;;;;;;14.31;16.27;101014.91;4430654;32;19981;-76
2022/03/01 12:16:38;;;;;;;;;;;;;;;14.55;17.18;101007.59;4432408;32;19969;-76
2022/03/01 12:19:08;;;;;;;;;;;;;;;14.29;17.60;101007.03;4412883;32;19990;-76
2022/03/01 12:21:35;;;;;;;;;;;;;;;14.07;18.25;100999.66;4416556;32;20023;-75
2022/03/01 12:24:02;;;;;;;;;;;;;;;14.45;16.49;100996.94;4404877;32;19982;-75
2022/03/01 12:26:30;;;;;;;;;;;;;;;14.45;17.42;100989.09;4401625;32;19981;-76
2022/03/01 12:28:58;;;;;;;;;;;;;;;14.34;17.03;100987.19;4414214;32;19990;-75
2022/03/01 12:31:27;;;;;;;;;;;;;;;14.51;17.53;100986.66;4423180;32;20319;-76
2022/03/01 12:33:55;;;;;;;;;;;;;;;14.51;14.79;100989.25;4407996;32;20440;-76
2022/03/01 12:36:26;;;;;;;;;;;;;;;14.45;15.34;100983.91;4401223;32;20031;-77
2022/03/01 12:38:54;;;;;;;;;;;;;;;14.37;15.25;100982.03;4402138;32;20035;-76
2022/03/01 12:41:21;;;;;;;;;;;;;;;14.35;15.13;100978.50;4412461;32;20449;-76
2022/03/01 12:43:51;;;;;;;;;;;;;;;14.14;16.03;100973.78;4400762;32;20467;-77
2022/03/01 12:46:18;;;;;;;;;;;;;;;14.19;15.96;100968.66;4409538;32;19996;-76